Time;durP1;ratioP1;P1;durP2;ratioP2;P2;SDS_P1;SDS_P2;PMS_P1;PMS_P2;Temp;Humidity;BMP_temperature;BMP_pressure;BME280_temperature;BME280_humidity;BME280_pressure;Samples;Min_cycle;Max_cycle;Signal;HPM_P1;HPM_P2
2023/12/16 00:01:57;;;;;;;;;;;4.30;99.90;;;;;;5003043;28;20585;-59
2023/12/16 00:04:35;;;;;;;;;;;4.30;99.90;;;;;;5002932;28;20375;-62
2023/12/16 00:07:02;;;;;;;;;;;4.30;99.90;;;;;;5005118;28;19964;-65
2023/12/16 00:09:28;;;;;;;;;;;4.30;99.90;;;;;;5003025;28;19929;-61
2023/12/16 00:11:56;;;;;;;;;;;4.30;99.90;;;;;;5003154;28;20628;-61
2023/12/16 00:14:23;;;;;;;;;;;4.20;99.90;;;;;;4995873;28;19926;-60
2023/12/16 00:16:50;;;;;;;;;;;4.20;99.90;;;;;;4999777;28;20406;-64
2023/12/16 00:19:16;;;;;;;;;;;4.20;99.90;;;;;;4997491;28;19930;-63
2023/12/16 00:21:43;;;;;;;;;;;4.20;99.90;;;;;;5002602;28;19936;-62
2023/12/16 00:24:10;;;;;;;;;;;4.20;99.90;;;;;;5001572;28;19929;-60
2023/12/16 00:26:37;;;;;;;;;;;4.20;99.90;;;;;;5003265;28;19975;-60
2023/12/16 00:29:04;;;;;;;;;;;4.20;99.90;;;;;;4997829;28;20056;-60
2023/12/16 00:31:30;;;;;;;;;;;4.20;99.90;;;;;;5001923;28;19936;-63
2023/12/16 00:33:57;;;;;;;;;;;4.20;99.90;;;;;;5001456;28;19930;-60
2023/12/16 00:36:24;;;;;;;;;;;4.20;99.90;;;;;;4997634;28;19945;-61
2023/12/16 00:38:51;;;;;;;;;;;4.20;99.90;;;;;;4996873;28;19973;-63
2023/12/16 00:41:18;;;;;;;;;;;4.20;99.90;;;;;;5001479;28;19929;-62
2023/12/16 00:43:45;;;;;;;;;;;4.20;99.90;;;;;;5000286;28;19929;-65
2023/12/16 00:46:12;;;;;;;;;;;4.20;99.90;;;;;;4999866;28;19930;-62
2023/12/16 00:48:38;;;;;;;;;;;4.20;99.90;;;;;;5002568;28;19933;-62
2023/12/16 00:51:05;;;;;;;;;;;4.20;99.90;;;;;;4997358;28;19960;-62
2023/12/16 00:53:32;;;;;;;;;;;4.20;99.90;;;;;;4995898;28;20583;-62
2023/12/16 00:55:59;;;;;;;;;;;4.20;99.90;;;;;;5000064;28;20032;-61
2023/12/16 00:58:26;;;;;;;;;;;4.20;99.90;;;;;;4995223;28;19930;-60
2023/12/16 01:00:53;;;;;;;;;;;4.20;99.90;;;;;;5001329;28;19961;-60
2023/12/16 01:03:20;;;;;;;;;;;4.30;99.90;;;;;;5002028;28;19936;-62
2023/12/16 01:05:46;;;;;;;;;;;4.30;99.90;;;;;;5000034;28;19930;-60
2023/12/16 01:08:13;;;;;;;;;;;4.30;99.90;;;;;;4997889;28;20013;-61
2023/12/16 01:10:40;;;;;;;;;;;4.30;99.90;;;;;;4999093;28;20575;-62
2023/12/16 01:13:07;;;;;;;;;;;4.30;99.90;;;;;;4999299;28;19968;-64
2023/12/16 01:15:35;;;;;;;;;;;4.30;99.90;;;;;;4996673;28;19925;-61
2023/12/16 01:18:02;;;;;;;;;;;4.30;99.90;;;;;;5000625;28;19963;-60
2023/12/16 01:20:29;;;;;;;;;;;4.30;99.90;;;;;;4993425;28;19930;-60
2023/12/16 01:22:56;;;;;;;;;;;4.30;99.90;;;;;;5003867;28;20012;-59
2023/12/16 01:25:22;;;;;;;;;;;4.30;99.90;;;;;;4999228;28;19972;-63
2023/12/16 01:27:49;;;;;;;;;;;4.30;99.90;;;;;;5004399;28;20383;-60
2023/12/16 01:30:16;;;;;;;;;;;4.30;99.90;;;;;;5001553;28;19988;-60
2023/12/16 01:32:43;;;;;;;;;;;4.20;99.90;;;;;;5000281;28;19930;-62
2023/12/16 01:35:10;;;;;;;;;;;4.30;99.90;;;;;;4999566;28;19937;-68
2023/12/16 01:37:37;;;;;;;;;;;4.30;99.90;;;;;;5002681;28;19952;-59
2023/12/16 01:40:04;;;;;;;;;;;4.30;99.90;;;;;;4997496;28;20435;-62
2023/12/16 01:42:31;;;;;;;;;;;4.30;99.90;;;;;;5000060;28;20450;-61
2023/12/16 01:44:58;;;;;;;;;;;4.30;99.90;;;;;;4994163;28;19933;-62
2023/12/16 01:47:25;;;;;;;;;;;4.30;99.90;;;;;;4992485;28;19926;-60
2023/12/16 01:49:52;;;;;;;;;;;4.30;99.90;;;;;;4997077;28;20015;-61
2023/12/16 01:52:19;;;;;;;;;;;4.30;99.90;;;;;;5001084;28;19925;-59
2023/12/16 01:54:46;;;;;;;;;;;4.30;99.90;;;;;;5002401;28;19925;-63
2023/12/16 01:57:13;;;;;;;;;;;4.30;99.90;;;;;;5002291;28;19926;-61
2023/12/16 01:59:40;;;;;;;;;;;4.30;99.90;;;;;;4999544;28;19965;-61
2023/12/16 02:02:07;;;;;;;;;;;4.30;99.90;;;;;;4997788;28;19929;-64
2023/12/16 02:04:34;;;;;;;;;;;4.30;99.90;;;;;;5004149;28;19934;-60
2023/12/16 02:07:01;;;;;;;;;;;4.30;99.90;;;;;;5001071;28;20032;-66
2023/12/16 02:09:28;;;;;;;;;;;4.30;99.90;;;;;;4997960;28;20032;-61
2023/12/16 02:11:55;;;;;;;;;;;4.30;99.90;;;;;;5005239;28;19930;-60
2023/12/16 02:14:22;;;;;;;;;;;4.30;99.90;;;;;;5005308;28;19973;-59
2023/12/16 02:16:49;;;;;;;;;;;4.30;99.90;;;;;;5003871;28;19984;-63
2023/12/16 02:19:22;;;;;;;;;;;4.40;99.90;;;;;;5004259;28;19932;-59
2023/12/16 02:21:49;;;;;;;;;;;4.30;99.90;;;;;;5006259;28;19933;-62
2023/12/16 02:24:16;;;;;;;;;;;4.40;99.90;;;;;;5001385;28;20043;-63
2023/12/16 02:26:43;;;;;;;;;;;4.30;99.90;;;;;;5004202;28;19933;-64
2023/12/16 02:29:10;;;;;;;;;;;4.40;99.90;;;;;;5003027;28;19925;-61
2023/12/16 02:31:36;;;;;;;;;;;4.40;99.90;;;;;;5002195;28;20015;-61
2023/12/16 02:34:04;;;;;;;;;;;4.40;99.90;;;;;;5001854;28;19977;-59
2023/12/16 02:36:31;;;;;;;;;;;4.40;99.90;;;;;;5006154;28;19929;-63
2023/12/16 02:38:58;;;;;;;;;;;4.40;99.90;;;;;;5001348;28;19932;-61
2023/12/16 02:41:25;;;;;;;;;;;4.40;99.90;;;;;;5004520;28;19926;-64
2023/12/16 02:43:52;;;;;;;;;;;4.40;99.90;;;;;;5006131;28;20343;-64
2023/12/16 02:46:18;;;;;;;;;;;4.40;99.90;;;;;;5003377;28;20016;-58
2023/12/16 02:48:45;;;;;;;;;;;4.40;99.90;;;;;;5002152;28;19933;-62
2023/12/16 02:51:19;;;;;;;;;;;4.40;99.90;;;;;;5003602;28;19933;-64
2023/12/16 02:53:46;;;;;;;;;;;4.40;99.90;;;;;;5000797;28;19933;-61
2023/12/16 02:56:12;;;;;;;;;;;4.40;99.90;;;;;;4997330;28;20036;-60
2023/12/16 02:58:39;;;;;;;;;;;4.40;99.90;;;;;;5006094;28;19932;-62
2023/12/16 03:01:06;;;;;;;;;;;4.40;99.90;;;;;;4999660;28;19961;-60
2023/12/16 03:03:34;;;;;;;;;;;4.40;99.90;;;;;;4999843;28;19930;-64
2023/12/16 03:06:05;;;;;;;;;;;4.40;99.90;;;;;;5004107;28;19969;-65
2023/12/16 03:08:32;;;;;;;;;;;4.40;99.90;;;;;;5003023;28;20383;-60
2023/12/16 03:10:59;;;;;;;;;;;4.40;99.90;;;;;;5002377;28;20334;-60
2023/12/16 03:13:26;;;;;;;;;;;4.40;99.90;;;;;;5004375;28;19934;-63
2023/12/16 03:15:53;;;;;;;;;;;4.40;99.90;;;;;;5002049;28;19940;-59
2023/12/16 03:18:19;;;;;;;;;;;4.40;99.90;;;;;;4999333;28;19936;-61
2023/12/16 03:20:47;;;;;;;;;;;4.40;99.90;;;;;;4993834;28;19936;-64
2023/12/16 03:23:14;;;;;;;;;;;4.40;99.90;;;;;;5000725;28;19930;-65
2023/12/16 03:25:44;;;;;;;;;;;4.30;99.90;;;;;;5002589;28;20016;-63
2023/12/16 03:28:11;;;;;;;;;;;4.30;99.90;;;;;;4999819;28;20355;-64
2023/12/16 03:30:39;;;;;;;;;;;4.30;99.90;;;;;;5000472;28;19929;-63
2023/12/16 03:33:09;;;;;;;;;;;4.30;99.90;;;;;;4999016;28;20024;-65
2023/12/16 03:35:36;;;;;;;;;;;4.30;99.90;;;;;;5002429;28;19929;-61
2023/12/16 03:38:03;;;;;;;;;;;4.30;99.90;;;;;;5003744;28;19933;-60
2023/12/16 03:40:30;;;;;;;;;;;4.30;99.90;;;;;;4999243;28;20299;-59
2023/12/16 03:42:57;;;;;;;;;;;4.30;99.90;;;;;;5001794;28;19980;-62
2023/12/16 03:45:24;;;;;;;;;;;4.30;99.90;;;;;;5003596;28;20346;-59
2023/12/16 03:47:51;;;;;;;;;;;4.30;99.90;;;;;;4999396;28;20599;-60
2023/12/16 03:50:18;;;;;;;;;;;4.30;99.90;;;;;;5003305;28;19936;-61
2023/12/16 03:52:45;;;;;;;;;;;4.30;99.90;;;;;;5000311;28;20024;-59
2023/12/16 03:55:12;;;;;;;;;;;4.30;99.90;;;;;;5002602;28;19973;-67
2023/12/16 03:57:39;;;;;;;;;;;4.30;99.90;;;;;;5002418;28;19929;-62
2023/12/16 04:00:08;;;;;;;;;;;4.30;99.90;;;;;;5002869;28;19926;-67
2023/12/16 04:02:38;;;;;;;;;;;4.30;99.90;;;;;;5005468;28;19926;-60
2023/12/16 04:05:05;;;;;;;;;;;4.20;99.90;;;;;;5001884;28;19930;-60
2023/12/16 04:07:32;;;;;;;;;;;4.30;99.90;;;;;;5004967;28;19940;-61
2023/12/16 04:10:00;;;;;;;;;;;4.30;99.90;;;;;;5004237;28;19973;-60
2023/12/16 04:12:26;;;;;;;;;;;4.30;99.90;;;;;;5003469;28;19932;-62
2023/12/16 04:14:53;;;;;;;;;;;4.30;99.90;;;;;;4999255;28;19930;-59
2023/12/16 04:17:20;;;;;;;;;;;4.30;99.90;;;;;;5002817;28;19925;-59
2023/12/16 04:19:51;;;;;;;;;;;4.30;99.90;;;;;;4999833;28;19936;-59
2023/12/16 04:22:18;;;;;;;;;;;4.30;99.90;;;;;;5002728;28;19933;-61
2023/12/16 04:24:45;;;;;;;;;;;4.30;99.90;;;;;;5002684;28;20028;-59
2023/12/16 04:27:12;;;;;;;;;;;4.30;99.90;;;;;;5001084;28;19976;-60
2023/12/16 04:29:39;;;;;;;;;;;4.30;99.90;;;;;;5000677;28;20015;-60
2023/12/16 04:32:06;;;;;;;;;;;4.30;99.90;;;;;;4998079;28;19925;-58
2023/12/16 04:34:33;;;;;;;;;;;4.30;99.90;;;;;;4998929;28;19934;-59
2023/12/16 04:36:59;;;;;;;;;;;4.30;99.90;;;;;;4998795;28;20357;-60
2023/12/16 04:39:26;;;;;;;;;;;4.30;99.90;;;;;;5000682;28;19925;-60
2023/12/16 04:41:53;;;;;;;;;;;4.30;99.90;;;;;;5001033;28;20003;-63
2023/12/16 04:44:20;;;;;;;;;;;4.30;99.90;;;;;;5001592;28;19974;-60
2023/12/16 04:46:47;;;;;;;;;;;4.30;99.90;;;;;;5002358;28;20021;-61
2023/12/16 04:49:13;;;;;;;;;;;4.30;99.90;;;;;;4994360;28;19925;-59
2023/12/16 04:51:40;;;;;;;;;;;4.30;99.90;;;;;;5000178;28;19933;-60
2023/12/16 04:54:07;;;;;;;;;;;4.30;99.90;;;;;;4996641;28;19961;-60
2023/12/16 04:56:34;;;;;;;;;;;4.30;99.90;;;;;;4997212;28;20396;-59
2023/12/16 04:59:02;;;;;;;;;;;4.30;99.90;;;;;;5001803;28;19925;-60
2023/12/16 05:01:28;;;;;;;;;;;4.30;99.90;;;;;;5000340;28;20023;-60
2023/12/16 05:03:55;;;;;;;;;;;4.30;99.90;;;;;;4999405;28;19933;-62
2023/12/16 05:06:22;;;;;;;;;;;4.30;99.90;;;;;;5002330;28;20669;-59
2023/12/16 05:08:49;;;;;;;;;;;4.30;99.90;;;;;;5000301;28;19926;-61
2023/12/16 05:11:16;;;;;;;;;;;4.30;99.90;;;;;;4999410;28;19929;-60
2023/12/16 05:13:43;;;;;;;;;;;4.30;99.90;;;;;;5002921;28;20357;-62
2023/12/16 05:16:09;;;;;;;;;;;4.30;99.90;;;;;;5006677;28;19925;-61
2023/12/16 05:18:36;;;;;;;;;;;4.30;99.90;;;;;;4998648;28;20041;-59
2023/12/16 05:21:04;;;;;;;;;;;4.30;99.90;;;;;;4998360;28;20016;-59
2023/12/16 05:23:30;;;;;;;;;;;4.20;99.90;;;;;;5001180;28;20327;-59
2023/12/16 05:25:57;;;;;;;;;;;4.20;99.90;;;;;;4996833;28;20040;-60
2023/12/16 05:28:24;;;;;;;;;;;4.20;99.90;;;;;;5000605;28;20375;-60
2023/12/16 05:30:51;;;;;;;;;;;4.20;99.90;;;;;;5000612;28;19925;-65
2023/12/16 05:33:18;;;;;;;;;;;4.20;99.90;;;;;;4998434;28;19930;-59
2023/12/16 05:35:45;;;;;;;;;;;4.10;99.90;;;;;;4995881;28;20340;-60
2023/12/16 05:38:11;;;;;;;;;;;4.10;99.90;;;;;;5000924;28;19933;-60
2023/12/16 05:40:38;;;;;;;;;;;4.10;99.90;;;;;;5002429;28;19932;-60
2023/12/16 05:43:05;;;;;;;;;;;4.10;99.90;;;;;;5005350;28;19925;-62
2023/12/16 05:45:32;;;;;;;;;;;4.20;99.90;;;;;;5008763;28;20027;-64
2023/12/16 05:47:59;;;;;;;;;;;4.20;99.90;;;;;;5007428;28;19933;-64
2023/12/16 05:50:26;;;;;;;;;;;4.20;99.90;;;;;;5008475;28;20016;-62
2023/12/16 05:52:53;;;;;;;;;;;4.20;99.90;;;;;;5008407;28;19929;-61
2023/12/16 05:55:19;;;;;;;;;;;4.20;99.90;;;;;;5003405;28;19926;-60
2023/12/16 05:57:46;;;;;;;;;;;4.20;99.90;;;;;;5007528;28;20020;-64
2023/12/16 06:00:13;;;;;;;;;;;4.20;99.90;;;;;;5008146;28;20320;-62
2023/12/16 06:02:40;;;;;;;;;;;4.20;99.90;;;;;;5005158;28;20342;-66
2023/12/16 06:05:07;;;;;;;;;;;4.30;99.90;;;;;;5009269;28;19937;-60
2023/12/16 06:07:34;;;;;;;;;;;4.30;99.90;;;;;;5003589;28;21378;-61
2023/12/16 06:10:01;;;;;;;;;;;4.30;99.90;;;;;;5009654;28;19929;-65
2023/12/16 06:12:33;;;;;;;;;;;4.40;99.90;;;;;;5007726;28;19999;-63
2023/12/16 06:15:00;;;;;;;;;;;4.40;99.90;;;;;;5006820;28;19933;-60
2023/12/16 06:17:27;;;;;;;;;;;4.40;99.90;;;;;;5007210;28;19969;-61
2023/12/16 06:19:54;;;;;;;;;;;4.40;99.90;;;;;;5001415;28;19937;-59
2023/12/16 06:22:20;;;;;;;;;;;4.40;99.90;;;;;;5011003;28;19930;-59
2023/12/16 06:24:47;;;;;;;;;;;4.40;99.90;;;;;;5005741;28;19926;-63
2023/12/16 06:27:14;;;;;;;;;;;4.40;99.90;;;;;;5003244;28;19929;-59
2023/12/16 06:29:41;;;;;;;;;;;4.40;99.90;;;;;;5012027;28;19933;-62
2023/12/16 06:32:08;;;;;;;;;;;4.40;99.90;;;;;;5006973;28;19926;-59
2023/12/16 06:34:35;;;;;;;;;;;4.40;99.90;;;;;;5009756;28;19932;-60
2023/12/16 06:37:02;;;;;;;;;;;4.40;99.90;;;;;;5004851;28;19933;-60
2023/12/16 06:39:28;;;;;;;;;;;4.40;99.90;;;;;;5006954;28;19941;-61
2023/12/16 06:41:55;;;;;;;;;;;4.50;99.90;;;;;;5004249;28;19938;-63
2023/12/16 06:44:22;;;;;;;;;;;4.50;99.90;;;;;;5005461;28;20641;-60
2023/12/16 06:46:49;;;;;;;;;;;4.40;99.90;;;;;;5008469;28;20433;-62
2023/12/16 06:49:16;;;;;;;;;;;4.40;99.90;;;;;;5004015;28;19937;-62
2023/12/16 06:51:42;;;;;;;;;;;4.40;99.90;;;;;;5002090;28;19934;-62
2023/12/16 06:54:11;;;;;;;;;;;4.40;99.90;;;;;;5003840;28;19940;-63
2023/12/16 06:56:38;;;;;;;;;;;4.40;99.90;;;;;;5003384;28;19926;-62
2023/12/16 06:59:05;;;;;;;;;;;4.40;99.90;;;;;;5002676;28;19936;-61
2023/12/16 07:01:31;;;;;;;;;;;4.40;99.90;;;;;;5002600;28;20350;-63
2023/12/16 07:03:58;;;;;;;;;;;4.40;99.90;;;;;;5003335;28;19933;-60
2023/12/16 07:06:25;;;;;;;;;;;4.50;99.90;;;;;;5000217;28;19933;-60
2023/12/16 07:08:52;;;;;;;;;;;4.50;99.90;;;;;;5002554;28;19929;-59
2023/12/16 07:11:20;;;;;;;;;;;4.40;99.90;;;;;;5002377;28;19988;-59
2023/12/16 07:13:47;;;;;;;;;;;4.40;99.90;;;;;;5003225;28;19926;-61
2023/12/16 07:16:14;;;;;;;;;;;4.50;99.90;;;;;;4997347;28;20339;-61
2023/12/16 07:18:41;;;;;;;;;;;4.50;99.90;;;;;;4998737;28;19965;-61
2023/12/16 07:21:08;;;;;;;;;;;4.40;99.90;;;;;;5001424;28;19925;-62
2023/12/16 07:23:35;;;;;;;;;;;4.50;99.90;;;;;;4999002;28;20018;-60
2023/12/16 07:26:02;;;;;;;;;;;4.50;99.90;;;;;;4997646;28;20599;-61
2023/12/16 07:28:29;;;;;;;;;;;4.50;99.90;;;;;;5001767;28;19925;-60
2023/12/16 07:30:57;;;;;;;;;;;4.50;99.90;;;;;;5000384;28;20043;-59
2023/12/16 07:33:25;;;;;;;;;;;4.40;99.90;;;;;;5003899;28;20186;-61
2023/12/16 07:35:52;;;;;;;;;;;4.40;99.90;;;;;;5002011;28;20307;-62
2023/12/16 07:38:21;;;;;;;;;;;4.40;99.90;;;;;;4999347;28;20024;-64
2023/12/16 07:40:47;;;;;;;;;;;4.40;99.90;;;;;;4996381;28;20347;-61
2023/12/16 07:43:14;;;;;;;;;;;4.40;99.90;;;;;;5006262;28;20268;-59
2023/12/16 07:45:41;;;;;;;;;;;4.40;99.90;;;;;;5004348;28;19938;-61
2023/12/16 07:48:08;;;;;;;;;;;4.40;99.90;;;;;;5002802;28;19930;-60
2023/12/16 07:50:35;;;;;;;;;;;4.40;99.90;;;;;;5000575;28;20601;-60
2023/12/16 07:53:02;;;;;;;;;;;4.40;99.90;;;;;;5001042;28;19952;-65
2023/12/16 07:55:29;;;;;;;;;;;4.40;99.90;;;;;;5002514;28;19933;-60
2023/12/16 07:57:56;;;;;;;;;;;4.40;99.90;;;;;;4997054;28;20451;-61
2023/12/16 08:00:23;;;;;;;;;;;4.40;99.90;;;;;;5000220;28;20004;-63
2023/12/16 08:02:50;;;;;;;;;;;4.40;99.90;;;;;;4996002;28;19932;-61
2023/12/16 08:05:18;;;;;;;;;;;4.40;99.90;;;;;;5002849;28;19961;-59
2023/12/16 08:07:46;;;;;;;;;;;4.30;99.90;;;;;;5002008;28;19934;-66
2023/12/16 08:10:13;;;;;;;;;;;4.40;99.90;;;;;;5002401;28;19933;-61
2023/12/16 08:12:40;;;;;;;;;;;4.30;99.90;;;;;;5002179;28;19941;-61
2023/12/16 08:15:08;;;;;;;;;;;4.40;99.90;;;;;;5004562;28;20347;-62
2023/12/16 08:17:35;;;;;;;;;;;4.40;99.90;;;;;;5005842;28;19937;-64
2023/12/16 08:20:02;;;;;;;;;;;4.40;99.90;;;;;;4999044;28;20267;-62
2023/12/16 08:22:29;;;;;;;;;;;4.40;99.90;;;;;;5002667;28;20286;-65
2023/12/16 08:24:57;;;;;;;;;;;4.40;99.90;;;;;;4999623;28;19969;-60
2023/12/16 08:27:24;;;;;;;;;;;4.40;99.90;;;;;;5001409;28;19929;-63
2023/12/16 08:29:51;;;;;;;;;;;4.40;99.90;;;;;;5004795;28;20402;-64
2023/12/16 08:32:17;;;;;;;;;;;4.40;99.90;;;;;;5001897;28;19996;-59
2023/12/16 08:34:44;;;;;;;;;;;4.40;99.90;;;;;;4998199;28;20028;-63
2023/12/16 08:37:11;;;;;;;;;;;4.40;99.90;;;;;;5000667;28;20049;-65
2023/12/16 08:39:40;;;;;;;;;;;4.40;99.90;;;;;;5002154;28;19961;-61
2023/12/16 08:42:09;;;;;;;;;;;4.40;99.90;;;;;;4995749;28;20184;-59
2023/12/16 08:44:36;;;;;;;;;;;4.40;99.90;;;;;;4993922;28;19953;-63
2023/12/16 08:47:03;;;;;;;;;;;4.40;99.90;;;;;;4996457;28;19929;-63
2023/12/16 08:49:32;;;;;;;;;;;4.40;99.90;;;;;;4999108;28;19930;-60
2023/12/16 08:51:59;;;;;;;;;;;4.40;99.90;;;;;;5004431;28;20398;-62
2023/12/16 08:54:26;;;;;;;;;;;4.40;99.90;;;;;;4998376;28;19952;-61
2023/12/16 08:56:53;;;;;;;;;;;4.40;99.90;;;;;;5003605;28;19999;-63
2023/12/16 08:59:21;;;;;;;;;;;4.50;99.90;;;;;;4999459;28;19933;-61
2023/12/16 09:01:48;;;;;;;;;;;4.50;99.90;;;;;;5001646;28;20013;-62
2023/12/16 09:04:15;;;;;;;;;;;4.50;99.90;;;;;;4998932;28;19932;-61
2023/12/16 09:06:43;;;;;;;;;;;4.50;99.90;;;;;;5001324;28;19972;-60
2023/12/16 09:09:11;;;;;;;;;;;4.50;99.90;;;;;;5002358;28;19949;-61
2023/12/16 09:11:44;;;;;;;;;;;4.50;99.90;;;;;;4998747;28;19937;-60
2023/12/16 09:14:11;;;;;;;;;;;4.60;99.90;;;;;;4996117;28;19929;-62
2023/12/16 09:16:38;;;;;;;;;;;4.60;99.90;;;;;;5000194;28;19980;-61
2023/12/16 09:19:07;;;;;;;;;;;4.60;99.90;;;;;;5001195;28;19933;-61
2023/12/16 09:21:34;;;;;;;;;;;4.60;99.90;;;;;;4999594;28;19929;-60
2023/12/16 09:24:01;;;;;;;;;;;4.60;99.90;;;;;;5000159;28;19925;-61
2023/12/16 09:26:28;;;;;;;;;;;4.60;99.90;;;;;;5000242;28;19956;-59
2023/12/16 09:28:55;;;;;;;;;;;4.60;99.90;;;;;;4999627;28;20334;-60
2023/12/16 09:31:22;;;;;;;;;;;4.60;99.90;;;;;;5000128;28;19933;-59
2023/12/16 09:33:49;;;;;;;;;;;4.60;99.90;;;;;;4997378;28;20291;-60
2023/12/16 09:36:16;;;;;;;;;;;4.60;99.90;;;;;;5001080;28;20328;-60
2023/12/16 09:38:43;;;;;;;;;;;4.70;99.90;;;;;;4995175;28;19953;-61
2023/12/16 09:41:20;;;;;;;;;;;4.70;99.90;;;;;;5001648;28;20348;-60
2023/12/16 09:43:50;;;;;;;;;;;4.70;99.90;;;;;;4997348;28;19929;-62
2023/12/16 09:46:18;;;;;;;;;;;4.70;99.90;;;;;;5000616;28;20016;-64
2023/12/16 09:48:45;;;;;;;;;;;4.70;99.90;;;;;;4998671;28;19969;-60
2023/12/16 09:51:12;;;;;;;;;;;4.70;99.90;;;;;;5001240;28;19973;-59
2023/12/16 09:53:39;;;;;;;;;;;4.70;99.90;;;;;;5000223;28;19981;-61
2023/12/16 09:56:06;;;;;;;;;;;4.70;99.90;;;;;;5004838;28;19937;-64
2023/12/16 09:58:33;;;;;;;;;;;4.80;99.90;;;;;;5003214;28;19965;-59
2023/12/16 10:01:01;;;;;;;;;;;4.80;99.90;;;;;;4998966;28;20021;-62
2023/12/16 10:03:29;;;;;;;;;;;4.80;99.90;;;;;;4999662;28;19935;-60
2023/12/16 10:05:56;;;;;;;;;;;4.80;99.90;;;;;;5003482;28;19984;-62
2023/12/16 10:08:23;;;;;;;;;;;4.80;99.90;;;;;;4998473;28;19933;-61
2023/12/16 10:10:56;;;;;;;;;;;4.90;99.90;;;;;;5001402;28;19925;-65
2023/12/16 10:13:53;;;;;;;;;;;4.90;99.90;;;;;;5000349;28;19936;-63
2023/12/16 10:16:26;;;;;;;;;;;4.80;99.90;;;;;;4994120;28;19925;-60
2023/12/16 10:18:54;;;;;;;;;;;4.80;99.90;;;;;;4997024;28;19929;-59
2023/12/16 10:21:30;;;;;;;;;;;4.80;99.90;;;;;;5003088;28;19930;-61
2023/12/16 10:23:58;;;;;;;;;;;4.80;99.90;;;;;;4995353;28;20024;-60
2023/12/16 10:26:25;;;;;;;;;;;4.80;99.90;;;;;;5002962;28;19926;-62
2023/12/16 10:28:52;;;;;;;;;;;4.90;99.90;;;;;;5004166;28;19929;-61
2023/12/16 10:31:21;;;;;;;;;;;4.90;99.90;;;;;;4997654;28;19929;-70
2023/12/16 10:33:48;;;;;;;;;;;4.90;99.90;;;;;;4999446;28;19929;-64
2023/12/16 10:36:15;;;;;;;;;;;4.90;99.90;;;;;;5000340;28;19941;-60
2023/12/16 10:38:43;;;;;;;;;;;5.00;99.90;;;;;;5004342;28;19934;-59
2023/12/16 10:41:10;;;;;;;;;;;5.00;99.90;;;;;;5003431;28;19933;-62
2023/12/16 10:43:37;;;;;;;;;;;5.00;99.90;;;;;;5003869;28;19926;-59
2023/12/16 10:46:05;;;;;;;;;;;5.00;99.90;;;;;;5005122;28;20444;-63
2023/12/16 10:48:34;;;;;;;;;;;5.00;99.90;;;;;;5002527;28;20472;-59
2023/12/16 10:51:03;;;;;;;;;;;5.00;99.90;;;;;;5006634;28;20354;-60
2023/12/16 10:53:29;;;;;;;;;;;5.00;99.90;;;;;;5003198;28;20046;-60
2023/12/16 10:56:02;;;;;;;;;;;5.00;99.90;;;;;;4999073;28;19991;-59
2023/12/16 10:58:35;;;;;;;;;;;5.10;99.90;;;;;;5004858;28;19925;-59
2023/12/16 11:01:14;;;;;;;;;;;5.00;99.90;;;;;;5000891;28;20303;-61
2023/12/16 11:03:45;;;;;;;;;;;5.10;99.90;;;;;;5002245;28;19945;-60
2023/12/16 11:06:12;;;;;;;;;;;5.10;99.90;;;;;;5006251;28;19981;-60
2023/12/16 11:08:40;;;;;;;;;;;5.10;99.90;;;;;;5003566;28;19960;-61
2023/12/16 11:11:07;;;;;;;;;;;5.10;99.90;;;;;;5003958;28;19933;-61
2023/12/16 11:13:35;;;;;;;;;;;5.20;99.90;;;;;;5002865;28;19936;-63
2023/12/16 11:16:10;;;;;;;;;;;5.20;99.90;;;;;;5004534;28;19980;-59
2023/12/16 11:18:38;;;;;;;;;;;5.20;99.90;;;;;;5002149;28;19956;-61
2023/12/16 11:21:07;;;;;;;;;;;5.20;99.90;;;;;;5000767;28;19930;-63
2023/12/16 11:23:42;;;;;;;;;;;5.20;99.90;;;;;;5004528;28;19952;-60
2023/12/16 11:26:09;;;;;;;;;;;5.30;99.90;;;;;;5002536;28;20011;-61
2023/12/16 11:28:36;;;;;;;;;;;5.30;99.90;;;;;;5003396;28;19937;-63
2023/12/16 11:31:03;;;;;;;;;;;5.30;99.90;;;;;;5001700;28;19925;-59
2023/12/16 11:33:43;;;;;;;;;;;5.30;99.90;;;;;;4998587;28;20447;-59
2023/12/16 11:36:11;;;;;;;;;;;5.40;99.90;;;;;;5001578;28;20033;-61
2023/12/16 11:38:40;;;;;;;;;;;5.40;99.90;;;;;;4998040;28;20396;-59
2023/12/16 11:41:07;;;;;;;;;;;5.40;99.90;;;;;;5001265;28;20486;-58
2023/12/16 11:43:46;;;;;;;;;;;5.30;99.90;;;;;;5002096;28;20475;-59
2023/12/16 11:46:32;;;;;;;;;;;5.30;99.90;;;;;;4998325;28;19929;-61
2023/12/16 11:49:01;;;;;;;;;;;5.30;99.90;;;;;;5005179;28;19933;-60
2023/12/16 11:51:34;;;;;;;;;;;5.30;99.90;;;;;;5000094;28;19929;-60
2023/12/16 11:54:01;;;;;;;;;;;5.30;99.90;;;;;;5000870;28;20010;-60
2023/12/16 11:56:28;;;;;;;;;;;5.30;99.90;;;;;;4999843;28;20027;-59
2023/12/16 11:58:58;;;;;;;;;;;5.30;99.90;;;;;;4997788;28;20051;-60
2023/12/16 12:01:26;;;;;;;;;;;5.40;99.90;;;;;;5001372;28;20353;-60
2023/12/16 12:03:53;;;;;;;;;;;5.40;99.90;;;;;;4996746;28;19937;-64
2023/12/16 12:06:21;;;;;;;;;;;5.40;99.90;;;;;;5001366;28;19932;-59
2023/12/16 12:08:48;;;;;;;;;;;5.40;99.90;;;;;;4996102;28;19937;-61
2023/12/16 12:11:20;;;;;;;;;;;5.40;99.90;;;;;;5002449;28;19936;-60
2023/12/16 12:13:52;;;;;;;;;;;5.50;99.90;;;;;;5000594;28;19960;-59
2023/12/16 12:16:20;;;;;;;;;;;5.50;99.90;;;;;;4997845;28;20422;-60
2023/12/16 12:18:47;;;;;;;;;;;5.50;99.90;;;;;;5003504;28;20248;-58
2023/12/16 12:21:15;;;;;;;;;;;5.50;99.90;;;;;;4999665;28;19984;-62
2023/12/16 12:23:42;;;;;;;;;;;5.50;99.90;;;;;;5000226;28;20019;-59
2023/12/16 12:26:09;;;;;;;;;;;5.50;99.90;;;;;;4996487;28;20351;-58
2023/12/16 12:28:36;;;;;;;;;;;5.50;99.90;;;;;;5000168;28;19933;-62
2023/12/16 12:31:03;;;;;;;;;;;5.50;99.90;;;;;;5001394;28;20327;-59
2023/12/16 12:33:33;;;;;;;;;;;5.50;99.90;;;;;;5002252;28;19933;-61
2023/12/16 12:36:01;;;;;;;;;;;5.40;99.90;;;;;;5002720;28;19932;-60
2023/12/16 12:38:28;;;;;;;;;;;5.40;99.90;;;;;;4997433;28;20276;-59
2023/12/16 12:40:56;;;;;;;;;;;5.40;99.90;;;;;;5003176;28;19984;-63
2023/12/16 12:43:27;;;;;;;;;;;5.50;99.90;;;;;;4998644;28;20376;-59
2023/12/16 12:46:06;;;;;;;;;;;5.50;99.90;;;;;;4998402;28;20438;-60
2023/12/16 12:48:33;;;;;;;;;;;5.50;99.90;;;;;;4994635;28;19941;-61
2023/12/16 12:51:01;;;;;;;;;;;5.50;99.90;;;;;;5002981;28;20338;-59
2023/12/16 12:53:28;;;;;;;;;;;5.60;99.90;;;;;;5002721;28;19926;-62
2023/12/16 12:55:55;;;;;;;;;;;5.60;99.90;;;;;;5000093;28;19933;-60
2023/12/16 12:58:22;;;;;;;;;;;5.60;99.90;;;;;;5001301;28;19926;-59
2023/12/16 13:00:59;;;;;;;;;;;5.60;99.90;;;;;;5002623;28;19929;-59
2023/12/16 13:03:31;;;;;;;;;;;5.70;99.90;;;;;;5000769;28;19952;-58
2023/12/16 13:06:00;;;;;;;;;;;5.70;99.90;;;;;;5003819;28;19926;-59
2023/12/16 13:08:29;;;;;;;;;;;5.80;99.90;;;;;;5000855;28;20515;-59
2023/12/16 13:10:56;;;;;;;;;;;5.80;99.90;;;;;;5002286;28;19992;-59
2023/12/16 13:13:23;;;;;;;;;;;5.80;99.90;;;;;;5000397;28;19930;-59
2023/12/16 13:15:50;;;;;;;;;;;5.90;99.90;;;;;;5000102;28;19930;-60
2023/12/16 13:18:23;;;;;;;;;;;5.90;99.90;;;;;;5000580;28;19934;-59
2023/12/16 13:20:52;;;;;;;;;;;5.90;99.90;;;;;;4999746;28;20524;-61
2023/12/16 13:23:19;;;;;;;;;;;5.90;99.90;;;;;;5003395;28;19930;-59
2023/12/16 13:25:45;;;;;;;;;;;5.90;99.90;;;;;;5000350;28;19936;-60
2023/12/16 13:28:12;;;;;;;;;;;6.00;99.90;;;;;;4997318;28;20351;-61
2023/12/16 13:30:40;;;;;;;;;;;6.00;99.90;;;;;;5001556;28;20265;-59
2023/12/16 13:33:08;;;;;;;;;;;6.00;99.90;;;;;;4999835;28;19940;-59
2023/12/16 13:35:35;;;;;;;;;;;6.00;99.90;;;;;;4994557;28;19940;-60
2023/12/16 13:38:02;;;;;;;;;;;6.10;99.90;;;;;;4999747;28;19932;-61
2023/12/16 13:40:29;;;;;;;;;;;6.10;99.90;;;;;;4999383;28;20288;-59
2023/12/16 13:42:56;;;;;;;;;;;6.10;99.90;;;;;;5001489;28;20627;-59
2023/12/16 13:45:23;;;;;;;;;;;6.10;99.90;;;;;;5001751;28;20003;-62
2023/12/16 13:47:50;;;;;;;;;;;6.10;99.90;;;;;;4999754;28;19985;-60
2023/12/16 13:50:17;;;;;;;;;;;6.10;99.90;;;;;;5002032;28;19999;-62
2023/12/16 13:52:44;;;;;;;;;;;6.10;99.90;;;;;;4999772;28;19961;-62
2023/12/16 13:55:11;;;;;;;;;;;6.20;99.90;;;;;;4995577;28;19969;-58
2023/12/16 13:57:38;;;;;;;;;;;6.20;99.90;;;;;;5004685;28;19937;-59
2023/12/16 14:00:05;;;;;;;;;;;6.20;99.90;;;;;;5001035;28;20299;-62
2023/12/16 14:02:32;;;;;;;;;;;6.20;99.90;;;;;;5002858;28;19925;-59
2023/12/16 14:05:01;;;;;;;;;;;6.30;99.90;;;;;;5003566;28;19972;-59
2023/12/16 14:07:29;;;;;;;;;;;6.30;99.90;;;;;;5002325;28;19930;-59
2023/12/16 14:09:56;;;;;;;;;;;6.40;99.90;;;;;;5007276;28;19930;-59
2023/12/16 14:12:22;;;;;;;;;;;6.40;99.90;;;;;;5008896;28;19933;-60
2023/12/16 14:14:49;;;;;;;;;;;6.40;99.90;;;;;;5005050;28;19925;-60
2023/12/16 14:17:16;;;;;;;;;;;6.40;99.90;;;;;;5004231;28;20016;-59
2023/12/16 14:19:44;;;;;;;;;;;6.40;99.90;;;;;;5005024;28;19929;-58
2023/12/16 14:22:11;;;;;;;;;;;6.40;99.90;;;;;;5003395;28;19932;-59
2023/12/16 14:24:38;;;;;;;;;;;6.30;99.90;;;;;;5004655;28;19944;-60
2023/12/16 14:27:04;;;;;;;;;;;6.30;99.90;;;;;;5006157;28;19969;-59
2023/12/16 14:29:31;;;;;;;;;;;6.30;99.90;;;;;;5000723;28;19925;-59
2023/12/16 14:31:58;;;;;;;;;;;6.20;99.90;;;;;;5006302;28;19934;-59
2023/12/16 14:34:25;;;;;;;;;;;6.20;99.90;;;;;;5004782;28;19926;-60